Flight Track Log - Related Links

Times and Time Zones

All times are in EDT time to prevent confusion due to time zone crossing. See the DLX119 flight status page for this flight to view local times or setup timezone preferences in your user account.

Time Position Orientation Groundspeed Altitude Reporting Facility
EDT Latitude Longitude Course Direction KTS MPH feet Rate Location/Type
Fri 04:21:35 PM 35.7442 -120.6550 354° North 146 168 4,300  Level Oakland Center
Fri 04:22:37 PM 35.7928 -120.6775 339° North 151 174 6,600 1,984 Climbing Oakland Center
Fri 04:23:39 PM 35.8397 -120.6950 343° North 164 189 8,400 1,707 Climbing Oakland Center
Fri 04:24:40 PM 35.8875 -120.7136 342° North 174 200 10,100 1,610 Climbing Oakland Center
Fri 04:25:42 PM 35.9328 -120.7356 339° North 176 203 11,700 1,366 Climbing Oakland Center
Fri 04:26:43 PM 35.9747 -120.7747 323° Northwest 188 216 12,900 1,122 Climbing Oakland Center
Fri 04:27:00 PM 36.0383 -120.6485 354° North  Level FlightAware Approximate
Fri 04:27:45 PM 36.0175 -120.8147 323° Northwest 194 223 14,000  Level Oakland Center
Fri 04:28:46 PM 36.0694 -120.8594 325° Northwest 229 264 14,000  Level Oakland Center
Fri 04:29:48 PM 36.1253 -120.9111 323° Northwest 249 287 14,000  Level Oakland Center
Fri 04:30:49 PM 36.1944 -120.9708 325° Northwest 255 293 14,000  Level Oakland Center
Fri 04:31:51 PM 36.2503 -121.0233 323° Northwest 255 293 14,000  Level Oakland Center
Fri 04:32:52 PM 36.3081 -121.0742 325° Northwest 257 296 14,000 -49 Level Oakland Center
Fri 04:33:54 PM 36.3653 -121.1253 324° Northwest 256 295 13,900 -49 Descending Oakland Center
Fri 04:34:55 PM 36.4231 -121.1789 323° Northwest 260 299 13,900  Level Oakland Center
Fri 04:35:57 PM 36.4806 -121.2308 324° Northwest 259 298 13,900  Level Oakland Center
Fri 04:36:58 PM 36.5386 -121.2828 324° Northwest 259 298 13,900  Level Oakland Center
Fri 04:38:00 PM 36.6078 -121.3450 324° Northwest 259 298 13,900 -145 Level Oakland Center
Fri 04:39:02 PM 36.6650 -121.3969 324° Northwest 255 293 13,600 -634 Descending Oakland Center
Fri 04:40:03 PM 36.7253 -121.4542 323° Northwest 272 313 12,600 -976 Descending Oakland Center
Fri 04:41:05 PM 36.7864 -121.5083 325° Northwest 271 312 11,600 -1,016 Descending Oakland Center
Fri 04:42:07 PM 36.8506 -121.5664 324° Northwest 269 310 10,500 -976 Descending Oakland Center
Fri 04:43:08 PM 36.9064 -121.6261 319° Northwest 265 305 9,600 -976 Descending Oakland Center
Fri 04:44:10 PM 36.9642 -121.6783 324° Northwest 260 299 8,500 -829 Descending Oakland Center
Fri 04:45:11 PM 37.0211 -121.7306 324° Northwest 255 293 7,900 -537 Descending Oakland Center
Fri 04:46:13 PM 37.0717 -121.7778 323° Northwest 234 269 7,400 -878 Descending Oakland Center
Fri 04:47:14 PM 37.1228 -121.8228 325° Northwest 226 260 6,100 -887 Descending Oakland Center
Fri 04:48:08 PM 37.1667 -121.8667 321° Northwest 206 237 5,700 -526 Descending Northern Cal TRACON
Fri 04:49:08 PM 37.2167 -121.9167 321° Northwest 207 238 5,100 -550 Descending Northern Cal TRACON
Fri 04:50:19 PM 37.2628 -121.9733 316° Northwest 206 237 4,500 -273 Descending Oakland Center
Fri 04:51:20 PM 37.3056 -122.0197 319° Northwest 204 235 4,500 -293 Level Oakland Center
Fri 04:52:22 PM 37.3464 -122.0686 316° Northwest 204 235 3,900 -778 Descending Oakland Center
Fri 04:53:08 PM 37.3833 -122.1167 314° West 206 237 3,100 -792 Descending Northern Cal TRACON
Fri 04:54:08 PM 37.4167 -122.1667 310° West 191 220 2,500 -468 Descending Northern Cal TRACON
Fri 04:54:25 PM 37.4253 -122.1675 356° North 201 231 2,500 -538 Level Oakland Center
Fri 04:55:26 PM 37.4603 -122.1894 334° Northwest 162 186 1,800 -829 Descending Oakland Center
Fri 04:56:28 PM 37.4903 -122.2247 317° Northwest 135 155 800 -829 Descending Oakland Center
Fri 04:57:29 PM 37.5072 -122.2439 318° Northwest 105 121 100 -689 Descending Oakland Center
Fri 04:59:00 PM 37.5000 -122.2333 313° West  Level FlightAware Approximate
Fri 05:06:00 PM 37.5118 -122.2495 313° West  Level Estimated

Login

Don't have an account? Register now (free) for customized features, flight alerts, and more!